Time;durP1;ratioP1;P1;durP2;ratioP2;P2;SDS_P1;SDS_P2;PMS_P1;PMS_P2;Temp;Humidity;BMP_temperature;BMP_pressure;BME280_temperature;BME280_humidity;BME280_pressure;Samples;Min_cycle;Max_cycle;Signal;HPM_P1;HPM_P2
2021/12/17 00:00:19;;;;;;;103.95;25.27;;;8.80;99.90;;;;;;5075372;28;20043;-77
2021/12/17 00:05:15;;;;;;;101.57;24.77;;;8.80;99.90;;;;;;5092379;28;20558;-77
2021/12/17 00:07:40;;;;;;;96.90;23.95;;;8.80;99.90;;;;;;5094865;28;20476;-77
2021/12/17 00:10:11;;;;;;;106.50;24.60;;;8.80;99.90;;;;;;5095302;28;20118;-77
2021/12/17 00:12:37;;;;;;;98.22;25.48;;;8.80;99.90;;;;;;5075797;28;20119;-77
2021/12/17 00:15:04;;;;;;;93.05;22.88;;;8.80;99.90;;;;;;5075664;28;20131;-77
2021/12/17 00:17:35;;;;;;;99.10;25.13;;;8.80;99.90;;;;;;5098513;28;20048;-77
2021/12/17 00:20:34;;;;;;;105.32;24.20;;;8.80;99.90;;;;;;5076911;28;20504;-77
2021/12/17 00:53:39;;;;;;;94.60;22.98;;;8.80;99.90;;;;;;5024179;28;20186;-77
2021/12/17 00:56:05;;;;;;;101.43;24.13;;;8.70;99.90;;;;;;5024203;28;20125;-78
2021/12/17 00:58:31;;;;;;;102.88;24.67;;;8.80;99.90;;;;;;5060197;28;20080;-78
2021/12/17 01:00:56;;;;;;;82.65;22.48;;;8.70;99.90;;;;;;5091211;28;20067;-78
2021/12/17 01:03:22;;;;;;;92.50;22.58;;;8.70;99.90;;;;;;5080100;28;20040;-78
2021/12/17 01:05:48;;;;;;;89.07;22.55;;;8.70;99.90;;;;;;5072595;28;20032;-78
2021/12/17 01:08:13;;;;;;;89.13;22.65;;;8.80;99.90;;;;;;5087772;28;20028;-78
2021/12/17 01:10:45;;;;;;;102.47;24.38;;;8.80;99.90;;;;;;5090108;28;20040;-78
2021/12/17 01:13:11;;;;;;;87.55;24.13;;;8.80;99.90;;;;;;5077915;28;20032;-78
2021/12/17 01:15:38;;;;;;;96.95;22.73;;;8.80;99.90;;;;;;5108072;28;20052;-77
2021/12/17 01:18:09;;;;;;;98.03;23.33;;;8.70;99.90;;;;;;5075976;28;20456;-78
2021/12/17 01:21:19;;;;;;;95.70;23.20;;;8.80;99.90;;;;;;5087174;28;20669;-77
2021/12/17 01:36:38;;;;;;;93.10;21.88;;;8.70;99.90;;;;;;5076830;28;20048;-77
2021/12/17 01:44:24;;;;;;;107.22;24.00;;;8.70;99.90;;;;;;5095969;28;20040;-77
2021/12/17 01:46:52;;;;;;;95.38;24.83;;;8.70;99.90;;;;;;5090725;28;20047;-77
2021/12/17 01:59:52;;;;;;;86.38;21.38;;;8.70;99.90;;;;;;5093850;28;20051;-77
2021/12/17 02:02:18;;;;;;;81.35;20.08;;;8.70;99.90;;;;;;5097940;28;20036;-77
2021/12/17 02:04:44;;;;;;;89.25;22.42;;;8.70;99.90;;;;;;5078061;28;20124;-77
2021/12/17 02:07:10;;;;;;;87.03;23.02;;;8.70;99.90;;;;;;5077151;28;20036;-77
2021/12/17 02:21:15;;;;;;;63.90;18.35;;;8.70;99.90;;;;;;5090135;28;20550;-77
2021/12/17 02:32:00;;;;;;;57.38;17.13;;;8.70;99.90;;;;;;5091787;28;20073;-77
2021/12/17 02:37:16;;;;;;;67.38;17.92;;;8.70;99.90;;;;;;5090965;28;20044;-77
2021/12/17 02:48:01;;;;;;;62.70;16.40;;;8.70;99.90;;;;;;5090358;28;20501;-77
2021/12/17 02:50:27;;;;;;;52.50;16.90;;;8.70;99.90;;;;;;5089758;28;20047;-77
2021/12/17 02:52:55;;;;;;;57.17;17.83;;;8.70;99.90;;;;;;5094133;28;20059;-77
2021/12/17 02:55:22;;;;;;;64.40;17.83;;;8.80;99.90;;;;;;5106010;27;20129;-77
2021/12/17 02:57:49;;;;;;;53.45;15.77;;;8.70;99.90;;;;;;5072699;28;20040;-77
2021/12/17 03:00:16;;;;;;;52.47;14.95;;;8.70;99.90;;;;;;5105750;27;20031;-77
2021/12/17 03:02:43;;;;;;;45.83;15.30;;;8.80;99.90;;;;;;5098407;28;20035;-77
2021/12/17 03:05:10;;;;;;;49.30;15.45;;;8.80;99.90;;;;;;5080865;28;20036;-77
2021/12/17 03:07:40;;;;;;;50.00;15.18;;;8.80;99.90;;;;;;5094732;28;20068;-77
2021/12/17 03:10:09;;;;;;;52.35;14.85;;;8.80;99.90;;;;;;5098852;28;20499;-76
2021/12/17 03:12:46;;;;;;;47.70;14.35;;;8.80;99.90;;;;;;5092445;28;20038;-77
2021/12/17 03:25:47;;;;;;;53.42;15.05;;;8.70;99.90;;;;;;5089294;28;20493;-77
2021/12/17 03:28:13;;;;;;;45.70;14.30;;;8.80;99.90;;;;;;5073666;28;20050;-77
2021/12/17 03:30:38;;;;;;;43.38;14.27;;;8.80;99.90;;;;;;5090312;28;20056;-77
2021/12/17 03:33:04;;;;;;;42.83;14.00;;;8.70;99.90;;;;;;5090931;28;20065;-77
2021/12/17 03:35:30;;;;;;;49.20;15.18;;;8.80;99.90;;;;;;5113647;27;20040;-77
2021/12/17 03:37:55;;;;;;;48.45;14.93;;;8.80;99.90;;;;;;5093654;28;20036;-77
2021/12/17 03:40:21;;;;;;;42.72;14.23;;;8.70;99.90;;;;;;5075063;28;20028;-77
2021/12/17 03:42:50;;;;;;;45.30;15.52;;;8.80;99.90;;;;;;5094327;28;20028;-77
2021/12/17 03:45:19;;;;;;;44.03;14.32;;;8.80;99.90;;;;;;5096105;28;20105;-77
2021/12/17 03:47:45;;;;;;;41.25;13.73;;;8.80;99.90;;;;;;5070842;28;20122;-77
2021/12/17 03:50:11;;;;;;;41.15;14.23;;;8.80;99.90;;;;;;5106641;28;20454;-77
2021/12/17 03:52:37;;;;;;;47.10;13.82;;;8.80;99.90;;;;;;5070078;28;20039;-77
2021/12/17 03:55:03;;;;;;;45.40;14.90;;;8.80;99.90;;;;;;5074983;28;20423;-77
2021/12/17 03:57:29;;;;;;;39.63;14.75;;;8.80;99.90;;;;;;5105965;27;20032;-77
2021/12/17 03:59:55;;;;;;;40.22;13.95;;;8.80;99.90;;;;;;5077948;28;20040;-77
2021/12/17 04:02:20;;;;;;;35.88;13.68;;;8.80;99.90;;;;;;5089252;28;20539;-77
2021/12/17 04:04:46;;;;;;;37.38;13.25;;;8.80;99.90;;;;;;5100811;28;20058;-76
2021/12/17 04:07:11;;;;;;;41.10;12.95;;;8.80;99.90;;;;;;5079775;28;20401;-77
2021/12/17 04:09:37;;;;;;;37.05;12.60;;;8.80;99.90;;;;;;5087826;28;20112;-77
2021/12/17 04:12:07;;;;;;;34.33;11.82;;;8.80;99.90;;;;;;5089052;28;20401;-77
2021/12/17 04:14:41;;;;;;;32.97;11.57;;;8.80;99.90;;;;;;5069168;28;20036;-77
2021/12/17 04:17:07;;;;;;;32.63;11.18;;;8.80;99.90;;;;;;5090215;28;20119;-77
2021/12/17 04:19:34;;;;;;;35.17;11.43;;;8.80;99.90;;;;;;5105455;27;20441;-77
2021/12/17 04:21:59;;;;;;;32.22;11.27;;;8.70;99.90;;;;;;5101910;28;20040;-77
2021/12/17 04:24:25;;;;;;;28.48;10.75;;;8.80;99.90;;;;;;5077289;28;20092;-77
2021/12/17 04:26:51;;;;;;;30.30;10.50;;;8.70;99.90;;;;;;5100254;28;20354;-77
2021/12/17 04:29:18;;;;;;;34.35;12.27;;;8.70;99.90;;;;;;5094220;28;20078;-77
2021/12/17 04:31:50;;;;;;;28.17;10.95;;;8.70;99.90;;;;;;5080582;28;20078;-77
2021/12/17 04:34:17;;;;;;;29.67;10.65;;;8.70;99.90;;;;;;5085131;28;20487;-77
2021/12/17 04:36:44;;;;;;;26.85;9.45;;;8.70;99.90;;;;;;5091658;28;20047;-77
2021/12/17 04:39:10;;;;;;;28.08;9.60;;;8.70;99.90;;;;;;5069069;28;20039;-77
2021/12/17 04:41:42;;;;;;;30.88;10.05;;;8.70;99.90;;;;;;5088437;28;20035;-77
2021/12/17 04:44:29;;;;;;;28.08;9.65;;;8.70;99.90;;;;;;5073660;28;20036;-77
2021/12/17 04:57:59;;;;;;;22.40;7.43;;;8.40;99.90;;;;;;5106962;28;20504;-77
2021/12/17 05:00:27;;;;;;;100.25;10.05;;;8.30;99.90;;;;;;5092975;28;20034;-77
2021/12/17 05:02:56;;;;;;;54.88;7.10;;;8.30;99.90;;;;;;5090705;28;20084;-77
2021/12/17 05:05:30;;;;;;;27.73;7.10;;;8.30;99.90;;;;;;5070336;28;20055;-77
2021/12/17 05:08:03;;;;;;;16.50;5.78;;;8.30;99.90;;;;;;5099499;28;20044;-77
2021/12/17 05:18:39;;;;;;;27.27;8.77;;;8.40;99.90;;;;;;5095267;28;20040;-77
2021/12/17 05:21:08;;;;;;;23.27;8.20;;;8.40;99.90;;;;;;5077676;28;20040;-77
2021/12/17 05:23:40;;;;;;;25.25;8.80;;;8.30;99.90;;;;;;5092296;28;20039;-77
2021/12/17 05:26:09;;;;;;;27.73;9.45;;;8.40;99.90;;;;;;5078182;28;20036;-77
2021/12/17 05:28:35;;;;;;;27.02;8.60;;;8.40;99.90;;;;;;5107599;27;20048;-77
2021/12/17 05:31:00;;;;;;;26.75;9.05;;;8.40;99.90;;;;;;5079024;28;20035;-76
2021/12/17 05:33:26;;;;;;;25.45;8.20;;;8.40;99.90;;;;;;5079429;28;20039;-77
2021/12/17 05:35:53;;;;;;;22.77;6.93;;;8.50;99.90;;;;;;5077460;28;20035;-77
2021/12/17 05:38:20;;;;;;;26.58;7.28;;;8.50;99.90;;;;;;5109028;27;20035;-77
2021/12/17 05:40:46;;;;;;;22.42;7.47;;;8.40;99.90;;;;;;5079984;28;20032;-77
2021/12/17 05:43:15;;;;;;;21.45;6.72;;;8.40;99.90;;;;;;5090906;28;20046;-77
2021/12/17 05:48:10;;;;;;;22.55;7.55;;;8.40;99.90;;;;;;5097373;28;20059;-77
2021/12/17 05:50:39;;;;;;;26.95;7.38;;;8.40;99.90;;;;;;5075592;28;20440;-77
2021/12/17 05:53:06;;;;;;;27.58;8.35;;;8.40;99.90;;;;;;5110590;27;20040;-77
2021/12/17 05:55:34;;;;;;;22.05;7.97;;;8.40;99.90;;;;;;5073111;28;20040;-77
2021/12/17 05:58:00;;;;;;;26.75;8.15;;;8.40;99.90;;;;;;5074471;28;20036;-77
2021/12/17 06:00:29;;;;;;;25.90;8.88;;;8.40;99.90;;;;;;5096721;28;20123;-77
2021/12/17 06:02:56;;;;;;;31.10;10.35;;;8.40;99.90;;;;;;5078142;28;20494;-77
2021/12/17 06:05:22;;;;;;;37.47;10.80;;;8.40;99.90;;;;;;5092701;28;20572;-77
2021/12/17 06:07:48;;;;;;;29.85;10.00;;;8.40;99.90;;;;;;5097858;28;20122;-76
2021/12/17 06:10:14;;;;;;;26.17;9.60;;;8.40;99.90;;;;;;5096141;28;20044;-77
2021/12/17 06:12:40;;;;;;;29.65;9.93;;;8.30;99.90;;;;;;5107767;27;20491;-77
2021/12/17 06:15:09;;;;;;;27.35;9.45;;;8.40;99.90;;;;;;5089492;28;20107;-77
2021/12/17 06:17:35;;;;;;;30.10;9.40;;;8.30;99.90;;;;;;5079402;28;20138;-77
2021/12/17 06:20:00;;;;;;;23.63;8.73;;;8.30;99.90;;;;;;5075610;28;20065;-77
2021/12/17 06:22:26;;;;;;;30.50;10.18;;;8.30;99.90;;;;;;5081685;28;20028;-77
2021/12/17 06:24:52;;;;;;;28.52;9.52;;;8.30;99.90;;;;;;5074647;28;20451;-77
2021/12/17 06:27:19;;;;;;;32.25;10.70;;;8.30;99.90;;;;;;5072342;28;20086;-76
2021/12/17 06:29:45;;;;;;;33.33;10.20;;;8.30;99.90;;;;;;5093380;28;20500;-77
2021/12/17 06:32:11;;;;;;;30.73;9.70;;;8.40;99.90;;;;;;5078044;28;20110;-77
2021/12/17 06:34:38;;;;;;;29.55;10.40;;;8.40;99.90;;;;;;5096784;28;20562;-77
2021/12/17 06:37:05;;;;;;;26.10;9.70;;;8.40;99.90;;;;;;5093347;28;20042;-77
2021/12/17 06:39:32;;;;;;;25.45;10.55;;;8.40;99.90;;;;;;5078596;28;20051;-77
2021/12/17 06:41:58;;;;;;;27.52;10.20;;;8.40;99.90;;;;;;5075782;28;20382;-77
2021/12/17 06:44:26;;;;;;;30.70;10.55;;;8.30;99.90;;;;;;5111153;27;20513;-77
2021/12/17 06:47:05;;;;;;;35.92;11.18;;;8.30;99.90;;;;;;5095835;28;20501;-77
2021/12/17 07:00:16;;;;;;;32.47;11.00;;;8.30;99.90;;;;;;5096072;28;20036;-77
2021/12/17 07:10:57;;;;;;;28.83;10.40;;;8.30;99.90;;;;;;5085987;28;20615;-77
2021/12/17 07:21:39;;;;;;;27.40;10.98;;;8.40;99.90;;;;;;5093548;28;20031;-77
2021/12/17 07:40:08;;;;;;;31.05;10.60;;;8.30;99.90;;;;;;5083512;28;20040;-77
2021/12/17 07:42:34;;;;;;;31.75;11.43;;;8.30;99.90;;;;;;5085533;28;20047;-77
2021/12/17 07:45:00;;;;;;;31.23;10.85;;;8.30;99.90;;;;;;5089962;28;20031;-77
2021/12/17 07:47:26;;;;;;;32.78;11.02;;;8.30;99.90;;;;;;5068889;28;20100;-77
2021/12/17 07:49:52;;;;;;;31.65;10.50;;;8.40;99.90;;;;;;5061688;28;20039;-77
2021/12/17 07:52:18;;;;;;;36.10;11.57;;;8.30;99.90;;;;;;5085166;28;20050;-77
2021/12/17 07:54:44;;;;;;;40.60;12.07;;;8.40;99.90;;;;;;5086060;28;20036;-77
2021/12/17 07:57:09;;;;;;;35.63;11.43;;;8.40;99.90;;;;;;5086372;28;20040;-77
2021/12/17 07:59:35;;;;;;;40.00;13.13;;;8.30;99.90;;;;;;5104093;27;20028;-77
2021/12/17 08:02:01;;;;;;;35.25;11.75;;;8.30;99.90;;;;;;5074730;28;20040;-78
2021/12/17 08:04:27;;;;;;;35.65;12.68;;;8.30;99.90;;;;;;5070033;28;20050;-78
2021/12/17 08:06:52;;;;;;;38.05;12.75;;;8.40;99.90;;;;;;5096915;28;20035;-78
2021/12/17 08:09:20;;;;;;;37.70;13.43;;;8.40;99.90;;;;;;5067466;28;20039;-77
2021/12/17 08:11:45;;;;;;;36.13;12.57;;;8.40;99.90;;;;;;5087754;28;20058;-77
2021/12/17 08:14:16;;;;;;;44.88;13.90;;;8.40;99.90;;;;;;5069642;28;20044;-78
2021/12/17 08:16:54;;;;;;;40.50;11.88;;;8.40;99.90;;;;;;5067997;28;20058;-77
2021/12/17 08:27:47;;;;;;;38.80;13.15;;;8.40;99.90;;;;;;5080084;28;20047;-77
2021/12/17 08:32:39;;;;;;;38.63;13.13;;;8.40;99.90;;;;;;5080056;28;20709;-77
2021/12/17 08:35:05;;;;;;;39.78;13.27;;;8.50;99.90;;;;;;5066634;28;20480;-77
2021/12/17 08:37:32;;;;;;;42.30;15.27;;;8.50;99.90;;;;;;5069603;28;20024;-77
2021/12/17 08:39:58;;;;;;;48.65;13.50;;;8.50;99.90;;;;;;5095836;28;20452;-77
2021/12/17 08:42:23;;;;;;;45.40;14.75;;;8.50;99.90;;;;;;5098311;28;20032;-77
2021/12/17 08:44:49;;;;;;;48.90;14.25;;;8.50;99.90;;;;;;5065952;28;20113;-77
2021/12/17 08:47:15;;;;;;;43.97;13.85;;;8.50;99.90;;;;;;5081197;28;20537;-77
2021/12/17 08:49:41;;;;;;;39.60;13.75;;;8.50;99.90;;;;;;5067010;28;20039;-78
2021/12/17 08:52:08;;;;;;;40.15;13.80;;;8.50;99.90;;;;;;5083656;28;20040;-78
2021/12/17 08:54:35;;;;;;;41.67;14.55;;;8.60;99.90;;;;;;5082368;28;20067;-78
2021/12/17 08:57:02;;;;;;;45.38;14.70;;;8.50;99.90;;;;;;5085194;28;20373;-78
2021/12/17 08:59:29;;;;;;;39.17;13.48;;;8.50;99.90;;;;;;5066687;28;20127;-78
2021/12/17 09:01:55;;;;;;;45.75;14.57;;;8.50;99.90;;;;;;5081372;28;20037;-78
2021/12/17 09:04:22;;;;;;;39.58;14.98;;;8.60;99.90;;;;;;5065936;28;20086;-78
2021/12/17 09:06:49;;;;;;;35.25;13.43;;;8.50;99.90;;;;;;5080893;28;20120;-78
2021/12/17 09:09:19;;;;;;;40.65;14.57;;;8.60;99.90;;;;;;5068043;28;20122;-77
2021/12/17 09:11:45;;;;;;;36.55;14.05;;;8.60;99.90;;;;;;5084951;28;20474;-78
2021/12/17 09:14:12;;;;;;;39.33;14.38;;;8.60;99.90;;;;;;5066207;28;20040;-77
2021/12/17 09:17:03;;;;;;;44.28;13.88;;;8.60;99.90;;;;;;5077373;28;20041;-89
2021/12/17 09:19:28;;;;;;;34.13;14.00;;;8.60;99.90;;;;;;5071756;28;20046;-81
2021/12/17 09:21:54;;;;;;;36.03;14.48;;;8.60;99.90;;;;;;5086254;28;20425;-78
2021/12/17 09:24:19;;;;;;;34.38;13.27;;;8.70;99.90;;;;;;5070939;28;20039;-78
2021/12/17 09:26:45;;;;;;;37.17;13.85;;;8.60;99.90;;;;;;5086225;28;20032;-78
2021/12/17 09:29:11;;;;;;;34.50;12.77;;;8.60;99.90;;;;;;5100232;28;20054;-78
2021/12/17 09:31:37;;;;;;;39.63;14.65;;;8.70;99.90;;;;;;5082441;28;20431;-77
2021/12/17 09:34:03;;;;;;;34.30;13.57;;;8.60;99.90;;;;;;5085998;28;20059;-78
2021/12/17 09:36:28;;;;;;;32.45;13.65;;;8.70;99.90;;;;;;5105402;28;20035;-77
2021/12/17 09:38:54;;;;;;;35.78;13.40;;;8.70;99.90;;;;;;5087157;28;20032;-77
2021/12/17 09:41:22;;;;;;;30.13;13.27;;;8.70;99.90;;;;;;5084996;28;20055;-77
2021/12/17 09:43:48;;;;;;;34.25;13.35;;;8.70;99.90;;;;;;5069653;28;20062;-77
2021/12/17 09:46:15;;;;;;;36.10;13.07;;;8.70;99.90;;;;;;5067808;28;20078;-77
2021/12/17 09:48:44;;;;;;;33.13;12.60;;;8.70;99.90;;;;;;5103571;28;20066;-78
2021/12/17 09:51:09;;;;;;;33.25;13.93;;;8.80;99.90;;;;;;5102730;28;20512;-77
2021/12/17 09:53:35;;;;;;;31.02;12.77;;;8.80;99.90;;;;;;5085176;28;20035;-78
2021/12/17 09:56:02;;;;;;;35.55;13.85;;;8.80;99.90;;;;;;5071660;28;20040;-77
2021/12/17 09:58:29;;;;;;;31.25;13.70;;;8.80;99.90;;;;;;5068198;28;20028;-78
2021/12/17 10:00:55;;;;;;;30.10;12.73;;;8.80;99.90;;;;;;5087181;28;20307;-78
2021/12/17 10:03:20;;;;;;;34.95;14.18;;;8.80;99.90;;;;;;5105759;27;20066;-78
2021/12/17 10:05:46;;;;;;;32.40;13.50;;;8.90;99.90;;;;;;5092368;28;20043;-79
2021/12/17 10:08:14;;;;;;;35.67;14.57;;;8.90;99.90;;;;;;5071881;28;20036;-76
2021/12/17 10:10:43;;;;;;;31.83;13.77;;;8.80;99.90;;;;;;5089735;28;20040;-78
2021/12/17 10:13:24;;;;;;;31.25;13.02;;;8.90;99.90;;;;;;5090750;28;20505;-77
2021/12/17 10:15:55;;;;;;;35.08;13.80;;;8.90;99.90;;;;;;5089603;28;20542;-77
2021/12/17 10:18:39;;;;;;;34.00;13.48;;;8.90;99.90;;;;;;5108893;27;20036;-78
2021/12/17 10:21:22;;;;;;;35.58;13.85;;;8.90;99.90;;;;;;5073141;28;20193;-78
2021/12/17 10:23:51;;;;;;;34.17;13.90;;;8.90;99.90;;;;;;5071283;28;20032;-78
2021/12/17 10:26:20;;;;;;;29.80;12.93;;;8.90;99.90;;;;;;5074011;28;20047;-78
2021/12/17 10:29:01;;;;;;;31.10;13.63;;;9.00;99.90;;;;;;5086195;28;20506;-78
2021/12/17 10:31:29;;;;;;;31.23;13.15;;;9.00;99.90;;;;;;5074749;28;20043;-77
2021/12/17 10:33:58;;;;;;;34.75;12.93;;;9.00;99.90;;;;;;5072375;28;20048;-77
2021/12/17 10:36:35;;;;;;;30.90;13.98;;;9.00;99.90;;;;;;5073025;28;20047;-78
2021/12/17 10:39:24;;;;;;;37.90;14.45;;;9.00;99.90;;;;;;5087421;28;20077;-77
2021/12/17 10:41:51;;;;;;;30.75;13.95;;;9.00;99.90;;;;;;5086374;28;20457;-77
2021/12/17 10:44:20;;;;;;;33.00;13.95;;;9.00;99.90;;;;;;5085796;28;20126;-76
2021/12/17 10:47:07;;;;;;;34.83;13.52;;;9.00;99.90;;;;;;5087778;28;20043;-77
2021/12/17 10:49:32;;;;;;;35.17;14.63;;;9.00;99.90;;;;;;5071075;28;20230;-77
2021/12/17 10:52:13;;;;;;;30.40;13.18;;;9.00;99.90;;;;;;5070025;28;20234;-77
2021/12/17 10:54:39;;;;;;;35.28;13.43;;;9.00;99.90;;;;;;5072145;28;20415;-77
2021/12/17 10:57:07;;;;;;;35.30;14.18;;;9.10;99.90;;;;;;5071501;28;20040;-78
2021/12/17 10:59:35;;;;;;;34.20;14.15;;;9.00;99.90;;;;;;5086897;28;20721;-77
2021/12/17 11:02:10;;;;;;;33.22;13.75;;;9.10;99.90;;;;;;5088768;28;20477;-77
2021/12/17 11:04:41;;;;;;;39.37;14.20;;;9.10;99.90;;;;;;5071833;28;20055;-78
2021/12/17 11:07:13;;;;;;;33.75;13.98;;;9.10;99.90;;;;;;5085290;28;20036;-77
2021/12/17 11:09:53;;;;;;;35.58;13.85;;;9.10;99.90;;;;;;5083218;28;20036;-76
2021/12/17 11:12:32;;;;;;;35.28;14.93;;;9.10;99.90;;;;;;5072556;28;20386;-76
2021/12/17 11:15:27;;;;;;;32.40;14.40;;;9.20;99.90;;;;;;5082830;28;20078;-77
2021/12/17 11:17:53;;;;;;;36.83;14.48;;;9.20;99.90;;;;;;5086862;28;20040;-77
2021/12/17 11:20:30;;;;;;;30.55;14.05;;;9.20;99.90;;;;;;5101985;28;20130;-78
2021/12/17 11:23:03;;;;;;;31.92;13.48;;;9.20;99.90;;;;;;5084222;28;20528;-78
2021/12/17 11:25:29;;;;;;;33.92;12.63;;;9.20;99.90;;;;;;5084829;28;22253;-77
2021/12/17 11:27:55;;;;;;;33.42;13.43;;;9.20;99.90;;;;;;5066486;28;20044;-77
2021/12/17 11:30:24;;;;;;;30.73;13.20;;;9.30;99.90;;;;;;5070221;28;20366;-77
2021/12/17 11:32:51;;;;;;;32.95;12.63;;;9.20;99.90;;;;;;5087392;28;20047;-78
2021/12/17 11:35:20;;;;;;;28.60;11.95;;;9.30;99.90;;;;;;5101372;28;20067;-78
2021/12/17 11:37:49;;;;;;;30.40;13.15;;;9.30;99.90;;;;;;5083026;28;20366;-78
2021/12/17 11:40:33;;;;;;;28.95;12.00;;;9.30;99.90;;;;;;5085256;28;20044;-78
2021/12/17 11:43:15;;;;;;;26.15;12.00;;;9.30;99.90;;;;;;5086988;28;20115;-78
2021/12/17 11:45:45;;;;;;;27.75;12.00;;;9.40;99.90;;;;;;5087340;28;20048;-78
2021/12/17 11:48:17;;;;;;;26.85;12.38;;;9.30;99.90;;;;;;5070047;28;20051;-79
2021/12/17 11:50:43;;;;;;;28.05;12.35;;;9.40;99.90;;;;;;5084724;28;20039;-77
2021/12/17 11:53:24;;;;;;;34.30;12.23;;;9.40;99.90;;;;;;5080595;28;20493;-78
2021/12/17 11:55:59;;;;;;;29.70;12.23;;;9.40;99.90;;;;;;5098006;28;20043;-78
2021/12/17 11:58:43;;;;;;;28.88;11.85;;;9.40;99.90;;;;;;5068123;28;20051;-78
2021/12/17 12:01:09;;;;;;;27.80;11.70;;;9.40;99.90;;;;;;5067242;28;20072;-78
2021/12/17 12:03:34;;;;;;;26.75;11.48;;;9.40;99.90;;;;;;5100861;28;20066;-79
2021/12/17 12:06:00;;;;;;;23.77;11.43;;;9.30;99.90;;;;;;5085152;28;20044;-79
2021/12/17 12:08:33;;;;;;;25.85;10.68;;;9.40;99.90;;;;;;5066509;28;20036;-77
2021/12/17 12:11:03;;;;;;;24.67;11.27;;;9.40;99.90;;;;;;5068529;28;20085;-77
2021/12/17 12:13:46;;;;;;;28.35;12.05;;;9.40;99.90;;;;;;5083896;28;20047;-78
2021/12/17 12:16:19;;;;;;;25.63;11.43;;;9.40;99.90;;;;;;5066761;28;20063;-77
2021/12/17 12:18:51;;;;;;;21.88;10.57;;;9.40;99.90;;;;;;5086965;28;20040;-85
2021/12/17 12:21:19;;;;;;;27.42;11.57;;;9.40;99.90;;;;;;5070342;28;20075;-80
2021/12/17 12:23:47;;;;;;;26.33;12.38;;;9.40;99.90;;;;;;5069202;28;20039;-79
2021/12/17 12:26:17;;;;;;;27.75;11.38;;;9.40;99.90;;;;;;5073173;28;20039;-83
2021/12/17 12:28:48;;;;;;;38.72;20.35;;;9.40;99.90;;;;;;5067847;28;20397;-77
2021/12/17 12:31:17;;;;;;;26.52;11.07;;;9.40;99.90;;;;;;5100758;28;20078;-77
2021/12/17 12:34:05;;;;;;;30.33;12.13;;;9.40;99.90;;;;;;5086901;28;20058;-77
2021/12/17 12:36:50;;;;;;;27.33;12.02;;;9.40;99.90;;;;;;5082151;28;20048;-77
2021/12/17 12:39:25;;;;;;;19.98;9.75;;;9.50;99.90;;;;;;5076483;28;20035;-78
2021/12/17 12:42:17;;;;;;;21.77;9.63;;;9.40;99.90;;;;;;5086785;28;20511;-77
2021/12/17 12:44:43;;;;;;;21.58;9.18;;;9.50;99.90;;;;;;5069686;28;20036;-84
2021/12/17 12:47:19;;;;;;;18.13;8.77;;;9.40;99.90;;;;;;5070230;28;20169;-77
2021/12/17 12:49:47;;;;;;;19.67;8.95;;;9.50;99.90;;;;;;5085076;28;20043;-80
2021/12/17 12:52:34;;;;;;;18.30;7.57;;;9.40;99.90;;;;;;5086856;28;20101;-81
2021/12/17 12:55:15;;;;;;;18.35;9.07;;;9.40;99.90;;;;;;5101972;28;20072;-82
2021/12/17 12:57:47;;;;;;;16.88;8.20;;;9.40;99.90;;;;;;5087200;28;20040;-81
2021/12/17 13:00:23;;;;;;;20.23;10.20;;;9.40;99.90;;;;;;5087154;28;20388;-77
2021/12/17 13:03:17;;;;;;;16.45;8.20;;;9.50;99.90;;;;;;5101609;28;20118;-77
2021/12/17 13:05:45;;;;;;;17.48;7.78;;;9.50;99.90;;;;;;5059512;28;20510;-77
2021/12/17 13:08:14;;;;;;;17.50;7.55;;;9.50;99.90;;;;;;5069420;28;20036;-77
2021/12/17 13:10:44;;;;;;;14.10;7.45;;;9.50;99.90;;;;;;5069492;28;20386;-76
2021/12/17 13:24:08;;;;;;;12.52;5.75;;;9.50;99.90;;;;;;5082599;28;20154;-77
2021/12/17 13:26:34;;;;;;;11.27;5.63;;;9.50;99.90;;;;;;5069063;28;20036;-77
2021/12/17 13:29:11;;;;;;;17.23;8.60;;;9.50;99.90;;;;;;5097004;28;20115;-77
2021/12/17 13:31:39;;;;;;;10.85;5.10;;;9.50;99.90;;;;;;5064403;28;20036;-77
2021/12/17 13:34:07;;;;;;;9.23;5.28;;;9.50;99.90;;;;;;5065751;28;20036;-77
2021/12/17 13:36:34;;;;;;;12.38;5.85;;;9.50;99.90;;;;;;5100253;28;20533;-77
2021/12/17 13:39:00;;;;;;;11.95;5.80;;;9.40;99.90;;;;;;5103257;28;20463;-77
2021/12/17 13:41:41;;;;;;;14.75;8.98;;;9.40;99.90;;;;;;5071819;28;20562;-77
2021/12/17 13:44:24;;;;;;;9.98;6.05;;;9.40;99.90;;;;;;5083636;28;20043;-76
2021/12/17 13:46:50;;;;;;;7.28;4.15;;;9.40;99.90;;;;;;5100607;28;20040;-76
2021/12/17 13:49:16;;;;;;;11.98;5.20;;;9.40;99.90;;;;;;5100131;28;20040;-76
2021/12/17 13:51:42;;;;;;;10.93;6.35;;;9.40;99.90;;;;;;5106296;28;20032;-76
2021/12/17 13:54:08;;;;;;;6.70;4.00;;;9.40;99.90;;;;;;5101515;28;20039;-77
2021/12/17 13:56:33;;;;;;;5.72;3.17;;;9.50;99.90;;;;;;5086023;28;20159;-77
2021/12/17 13:59:01;;;;;;;12.45;5.10;;;9.40;99.90;;;;;;5083641;28;20035;-78
2021/12/17 14:01:26;;;;;;;7.82;4.20;;;9.40;99.90;;;;;;5067838;28;20038;-77
2021/12/17 14:03:52;;;;;;;4.80;2.88;;;9.40;99.90;;;;;;5071793;28;20259;-77
2021/12/17 14:06:24;;;;;;;4.57;2.80;;;9.40;99.90;;;;;;5070416;28;20044;-77
2021/12/17 14:08:52;;;;;;;5.20;3.25;;;9.40;99.90;;;;;;5082041;28;20036;-78
2021/12/17 14:11:32;;;;;;;4.25;2.72;;;9.40;99.90;;;;;;5101252;28;20386;-77
2021/12/17 14:13:58;;;;;;;8.85;3.17;;;9.40;99.90;;;;;;5069879;28;20115;-77
2021/12/17 14:16:31;;;;;;;5.53;3.70;;;9.40;99.90;;;;;;5073315;28;20134;-77
2021/12/17 14:18:58;;;;;;;6.15;4.25;;;9.40;99.90;;;;;;5084769;28;20082;-77
2021/12/17 14:21:29;;;;;;;7.45;3.15;;;9.40;99.90;;;;;;5071637;28;20405;-77
2021/12/17 14:23:54;;;;;;;6.80;3.85;;;9.40;99.90;;;;;;5089357;28;20024;-77
2021/12/17 14:26:27;;;;;;;6.43;3.47;;;9.30;99.90;;;;;;5101749;28;20040;-77
2021/12/17 14:28:53;;;;;;;5.60;2.63;;;9.40;99.90;;;;;;5071022;28;20377;-77
2021/12/17 14:31:23;;;;;;;7.68;3.30;;;9.40;99.90;;;;;;5099494;28;20054;-76
2021/12/17 14:33:52;;;;;;;8.38;4.25;;;9.40;99.90;;;;;;5099980;28;20135;-77
2021/12/17 14:36:38;;;;;;;8.90;3.97;;;9.30;99.90;;;;;;5092816;28;20036;-77
2021/12/17 14:39:14;;;;;;;7.00;4.13;;;9.40;99.90;;;;;;5085836;28;20044;-77
2021/12/17 14:41:49;;;;;;;7.43;4.47;;;9.30;99.90;;;;;;5069217;28;20397;-77
2021/12/17 14:44:50;;;;;;;9.35;5.22;;;9.40;99.90;;;;;;5084361;28;20032;-78
2021/12/17 14:47:19;;;;;;;8.05;5.15;;;9.30;99.90;;;;;;5080285;28;20052;-79
2021/12/17 15:06:02;;;;;;;11.35;6.18;;;9.30;99.90;;;;;;5106910;28;20171;-77
2021/12/17 15:08:28;;;;;;;12.25;6.50;;;9.30;99.90;;;;;;5107123;28;20139;-77
2021/12/17 15:10:55;;;;;;;15.02;7.57;;;9.30;99.90;;;;;;5106809;28;20497;-77
2021/12/17 15:13:21;;;;;;;14.00;7.68;;;9.30;99.90;;;;;;5088273;28;20048;-77
2021/12/17 15:15:46;;;;;;;13.65;7.53;;;9.30;99.90;;;;;;5089159;28;20062;-77
2021/12/17 15:18:15;;;;;;;13.52;7.72;;;9.30;99.90;;;;;;5087578;28;20468;-77
2021/12/17 15:20:46;;;;;;;17.48;8.00;;;9.30;99.90;;;;;;5071710;28;20044;-77
2021/12/17 15:23:13;;;;;;;13.57;8.38;;;9.30;99.90;;;;;;5070327;28;20391;-77
2021/12/17 15:25:39;;;;;;;14.20;7.70;;;9.30;99.90;;;;;;5098205;28;20043;-77
2021/12/17 15:28:06;;;;;;;14.95;7.90;;;9.30;99.90;;;;;;5069809;28;20047;-77
2021/12/17 15:30:36;;;;;;;14.32;8.20;;;9.30;99.90;;;;;;5066383;28;20067;-78
2021/12/17 15:33:02;;;;;;;12.98;7.88;;;9.30;99.90;;;;;;5075245;28;20032;-78
2021/12/17 15:35:29;;;;;;;13.18;7.47;;;9.30;99.90;;;;;;5110102;28;20040;-77
2021/12/17 15:37:57;;;;;;;12.48;7.15;;;9.30;99.90;;;;;;5079158;28;20032;-78
2021/12/17 15:40:24;;;;;;;11.95;6.65;;;9.30;99.90;;;;;;5070652;28;20036;-77
2021/12/17 15:42:51;;;;;;;14.18;6.70;;;9.30;99.90;;;;;;5088598;28;20047;-77
2021/12/17 15:45:17;;;;;;;12.07;6.40;;;9.30;99.90;;;;;;5087635;28;20054;-77
2021/12/17 15:47:43;;;;;;;9.10;5.50;;;9.30;99.90;;;;;;5072686;28;20480;-77
2021/12/17 15:50:11;;;;;;;8.57;4.95;;;9.30;99.90;;;;;;5086800;28;20481;-77
2021/12/17 15:52:45;;;;;;;11.23;5.90;;;9.30;99.90;;;;;;5086402;28;20588;-77
2021/12/17 15:55:14;;;;;;;10.48;5.60;;;9.30;99.90;;;;;;5106193;28;20036;-77
2021/12/17 15:57:40;;;;;;;9.93;5.78;;;9.30;99.90;;;;;;5105398;28;20073;-77
2021/12/17 16:00:07;;;;;;;9.25;5.30;;;9.30;99.90;;;;;;5071900;28;20036;-77
2021/12/17 16:02:33;;;;;;;9.45;5.20;;;9.30;99.90;;;;;;5079699;28;20149;-77
2021/12/17 16:04:59;;;;;;;11.00;5.70;;;9.30;99.90;;;;;;5087468;28;20158;-77
2021/12/17 16:07:24;;;;;;;11.60;6.15;;;9.30;99.90;;;;;;5085148;28;20289;-77
2021/12/17 16:23:19;;;;;;;11.73;7.07;;;9.30;99.90;;;;;;5084081;28;20048;-76
2021/12/17 16:25:45;;;;;;;13.90;6.32;;;9.30;99.90;;;;;;5089753;28;20051;-78
2021/12/17 16:28:11;;;;;;;13.13;6.97;;;9.30;99.90;;;;;;5090707;28;20097;-77
2021/12/17 16:30:37;;;;;;;13.65;7.50;;;9.30;99.90;;;;;;5073938;28;20478;-77